createdAt,value
2022-12-29T00:00:10.833Z,98.74
2022-12-29T00:02:37.444Z,98.44
2022-12-29T00:05:04.251Z,98.69
2022-12-29T00:07:30.698Z,98.48
2022-12-29T00:09:57.069Z,98.49
2022-12-29T00:12:23.462Z,98.43
2022-12-29T00:15:08.531Z,98.50
2022-12-29T00:17:35.011Z,98.39
2022-12-29T00:20:19.925Z,98.23
2022-12-29T00:23:04.593Z,98.09
2022-12-29T00:25:49.753Z,97.73
2022-12-29T00:28:34.500Z,97.45
2022-12-29T00:31:20.780Z,97.58
2022-12-29T00:34:05.817Z,97.30
2022-12-29T00:36:39.834Z,97.46
2022-12-29T00:39:37.545Z,97.59
2022-12-29T00:42:26.829Z,97.31
2022-12-29T00:44:53.389Z,97.25
2022-12-29T00:47:19.817Z,97.29
2022-12-29T00:49:46.288Z,96.92
2022-12-29T00:52:13.872Z,96.72
2022-12-29T00:54:41.575Z,96.80
2022-12-29T00:57:10.115Z,96.64
2022-12-29T00:59:37.841Z,96.27
2022-12-29T01:02:04.641Z,96.03
2022-12-29T01:04:31.235Z,95.38
2022-12-29T01:06:57.887Z,95.68
2022-12-29T01:09:43.669Z,95.39
2022-12-29T01:12:11.096Z,95.34
2022-12-29T01:14:39.468Z,95.27
2022-12-29T01:17:06.648Z,95.47
2022-12-29T01:19:33.839Z,95.28
2022-12-29T01:22:00.468Z,95.03
2022-12-29T01:24:27.313Z,95.04
2022-12-29T01:26:55.351Z,95.22
2022-12-29T01:29:22.676Z,95.06
2022-12-29T01:31:51.107Z,94.83
2022-12-29T01:34:18.383Z,95.05
2022-12-29T01:36:44.906Z,95.24
2022-12-29T01:39:11.463Z,95.51
2022-12-29T01:41:37.966Z,95.38
2022-12-29T01:44:47.685Z,96.16
2022-12-29T01:47:29.414Z,96.38
2022-12-29T01:49:58.812Z,96.18
2022-12-29T01:52:29.193Z,96.44
2022-12-29T01:54:57.412Z,96.33
2022-12-29T01:57:32.429Z,96.67
2022-12-29T02:00:09.369Z,96.36
2022-12-29T02:02:37.052Z,96.34
2022-12-29T02:05:30.141Z,97.02
2022-12-29T02:07:56.705Z,96.30
2022-12-29T02:10:26.777Z,96.30
2022-12-29T02:12:53.800Z,96.34
2022-12-29T02:15:36.991Z,96.66
2022-12-29T02:18:15.648Z,96.96
2022-12-29T02:21:11.574Z,96.83
2022-12-29T02:23:52.495Z,96.95
2022-12-29T02:26:52.716Z,96.92
2022-12-29T02:29:32.829Z,96.23
2022-12-29T02:32:04.055Z,96.22
2022-12-29T02:34:33.433Z,95.86
2022-12-29T02:37:11.403Z,96.39
2022-12-29T02:40:13.012Z,96.64
2022-12-29T02:43:04.982Z,96.70
2022-12-29T02:45:43.498Z,96.16
2022-12-29T02:48:23.528Z,95.82
2022-12-29T02:51:02.936Z,95.54
2022-12-29T02:53:51.423Z,95.58
2022-12-29T02:56:18.488Z,95.31
2022-12-29T02:58:45.066Z,95.08
2022-12-29T03:01:38.027Z,95.39
2022-12-29T03:04:32.621Z,95.24
2022-12-29T03:07:10.301Z,94.47
2022-12-29T03:10:10.878Z,94.36
2022-12-29T03:13:05.939Z,93.96
2022-12-29T03:16:00.928Z,93.74
2022-12-29T03:18:40.844Z,93.69
2022-12-29T03:21:18.751Z,93.15
2022-12-29T03:23:51.009Z,92.88
2022-12-29T03:26:20.950Z,92.61
2022-12-29T03:28:53.625Z,92.53
2022-12-29T03:31:23.777Z,92.18
2022-12-29T03:33:51.572Z,92.03
2022-12-29T03:36:29.266Z,91.91
2022-12-29T03:39:06.978Z,91.75
2022-12-29T03:41:35.654Z,91.25
2022-12-29T03:44:02.229Z,91.22
2022-12-29T03:46:28.722Z,91.06
2022-12-29T03:48:55.182Z,91.01
2022-12-29T03:51:22.086Z,90.88
2022-12-29T03:53:48.499Z,90.72
2022-12-29T03:56:14.947Z,90.27
2022-12-29T03:58:41.367Z,90.23
2022-12-29T04:01:08.077Z,90.05
2022-12-29T04:03:35.109Z,89.95
2022-12-29T04:06:01.644Z,89.75
2022-12-29T04:08:28.036Z,89.64
2022-12-29T04:10:54.448Z,89.55
2022-12-29T04:13:20.982Z,89.47
2022-12-29T04:15:47.561Z,89.23
2022-12-29T04:18:14.305Z,89.14
2022-12-29T04:20:59.680Z,88.70
2022-12-29T04:23:26.647Z,88.12
2022-12-29T04:25:53.135Z,87.96
2022-12-29T04:28:19.986Z,87.43
2022-12-29T04:30:47.429Z,87.45
2022-12-29T04:33:14.223Z,87.15
2022-12-29T04:35:40.838Z,87.08
2022-12-29T04:38:07.352Z,86.83
2022-12-29T04:40:34.018Z,86.61
2022-12-29T04:43:00.493Z,86.52
2022-12-29T04:45:27.054Z,86.34
2022-12-29T04:47:53.579Z,86.30
2022-12-29T04:50:19.998Z,86.73
2022-12-29T04:52:46.508Z,87.32
2022-12-29T04:55:12.945Z,88.08
2022-12-29T04:57:39.404Z,88.32
2022-12-29T05:00:07.116Z,89.23
2022-12-29T05:02:34.276Z,89.49
2022-12-29T05:05:00.835Z,89.85
2022-12-29T05:07:27.265Z,91.29
2022-12-29T05:09:53.719Z,92.02
2022-12-29T05:12:20.203Z,92.21
2022-12-29T05:14:46.604Z,92.99
2022-12-29T05:17:13.068Z,93.53
2022-12-29T05:19:39.542Z,94.15
2022-12-29T05:22:05.985Z,95.01
2022-12-29T05:24:32.436Z,95.77
2022-12-29T05:26:59.971Z,95.87
2022-12-29T05:29:26.387Z,95.94
2022-12-29T05:31:52.944Z,95.76
2022-12-29T05:34:19.475Z,95.86
2022-12-29T05:36:45.873Z,95.85
2022-12-29T05:39:12.348Z,96.15
2022-12-29T05:41:38.756Z,96.37
2022-12-29T05:44:05.277Z,96.36
2022-12-29T05:46:31.804Z,96.29
2022-12-29T05:48:58.664Z,95.99
2022-12-29T05:51:25.151Z,95.33
2022-12-29T05:53:51.910Z,94.91
2022-12-29T05:56:18.437Z,94.53
2022-12-29T05:58:44.833Z,93.99
2022-12-29T06:01:11.287Z,93.53
2022-12-29T06:03:40.670Z,92.86
2022-12-29T06:06:09.507Z,92.41
2022-12-29T06:08:36.077Z,91.99
2022-12-29T06:11:02.646Z,91.70
2022-12-29T06:13:29.056Z,91.50
2022-12-29T06:15:55.651Z,91.59
2022-12-29T06:18:22.194Z,91.34
2022-12-29T06:20:48.961Z,91.24
2022-12-29T06:23:15.715Z,91.05
2022-12-29T06:25:42.097Z,91.02
2022-12-29T06:28:11.751Z,90.84
2022-12-29T06:30:38.963Z,90.31
2022-12-29T06:33:05.394Z,90.06
2022-12-29T06:35:32.073Z,89.70
2022-12-29T06:37:58.559Z,89.58
2022-12-29T06:40:25.020Z,89.61
2022-12-29T06:42:51.479Z,89.60
2022-12-29T06:45:17.844Z,89.48
2022-12-29T06:47:44.235Z,89.79
2022-12-29T06:50:10.675Z,89.64
2022-12-29T06:52:37.216Z,89.52
2022-12-29T06:55:03.931Z,89.23
2022-12-29T06:57:30.466Z,89.46
2022-12-29T06:59:57.012Z,89.62
2022-12-29T07:02:26.228Z,89.69
2022-12-29T07:04:53.406Z,89.18
2022-12-29T07:07:20.916Z,89.10
2022-12-29T07:09:47.650Z,89.54
2022-12-29T07:12:14.133Z,89.77
2022-12-29T07:14:43.303Z,89.76
2022-12-29T07:17:10.206Z,89.42
2022-12-29T07:19:36.953Z,89.75
2022-12-29T07:22:03.667Z,89.45
2022-12-29T07:24:30.790Z,89.35
2022-12-29T07:26:57.428Z,89.39
2022-12-29T07:29:24.010Z,89.26
2022-12-29T07:31:50.502Z,89.23
2022-12-29T07:34:16.882Z,89.05
2022-12-29T07:36:43.637Z,88.95
2022-12-29T07:39:10.092Z,88.56
2022-12-29T07:41:36.600Z,87.80
2022-12-29T07:44:03.039Z,86.98
2022-12-29T07:46:56.060Z,86.73
2022-12-29T07:49:15.830Z,86.11
2022-12-29T07:51:42.215Z,85.70
2022-12-29T07:54:10.284Z,85.32
2022-12-29T07:56:37.057Z,84.97
2022-12-29T07:59:03.445Z,84.88
2022-12-29T08:01:29.932Z,84.94
2022-12-29T08:03:57.756Z,85.00
2022-12-29T08:06:24.508Z,84.97
2022-12-29T08:08:50.989Z,85.11
2022-12-29T08:11:17.383Z,85.25
2022-12-29T08:13:43.893Z,85.19
2022-12-29T08:16:10.417Z,84.89
2022-12-29T08:18:37.047Z,84.94
2022-12-29T08:21:05.339Z,85.46
2022-12-29T08:23:32.488Z,85.58
2022-12-29T08:26:04.095Z,85.97
2022-12-29T08:28:31.327Z,86.34
2022-12-29T08:31:03.195Z,87.05
2022-12-29T08:33:30.087Z,86.99
2022-12-29T08:36:04.019Z,87.33
2022-12-29T08:38:30.748Z,86.91
2022-12-29T08:40:57.986Z,86.57
2022-12-29T08:43:25.241Z,86.14
2022-12-29T08:45:52.106Z,85.90
2022-12-29T08:48:20.783Z,85.61
2022-12-29T08:50:47.969Z,85.52
2022-12-29T08:53:14.468Z,85.22
2022-12-29T08:55:41.264Z,84.75
2022-12-29T08:58:07.698Z,84.83
2022-12-29T09:00:34.086Z,84.48
2022-12-29T09:03:00.636Z,84.68
2022-12-29T09:05:27.168Z,84.01
2022-12-29T09:07:53.629Z,83.51
2022-12-29T09:10:20.252Z,83.10
2022-12-29T09:12:46.779Z,82.43
2022-12-29T09:15:13.771Z,81.37
2022-12-29T09:17:46.500Z,80.57
2022-12-29T09:20:15.080Z,80.14
2022-12-29T09:22:41.647Z,79.75
2022-12-29T09:25:09.348Z,79.51
2022-12-29T09:27:37.067Z,79.44
2022-12-29T09:30:07.346Z,79.50
2022-12-29T09:32:36.040Z,79.03
2022-12-29T09:35:05.042Z,78.95
2022-12-29T09:37:31.437Z,78.66
2022-12-29T09:39:57.856Z,77.51
2022-12-29T09:42:55.226Z,77.36
2022-12-29T09:45:31.868Z,76.79
2022-12-29T09:47:58.443Z,76.30
2022-12-29T09:50:33.820Z,76.10
2022-12-29T09:53:10.640Z,75.73
2022-12-29T09:55:46.007Z,75.22
2022-12-29T09:58:37.297Z,75.16
2022-12-29T10:01:06.189Z,74.72
2022-12-29T10:03:45.748Z,73.95
2022-12-29T10:06:22.545Z,74.03
2022-12-29T10:09:01.271Z,74.12
2022-12-29T10:12:05.572Z,73.73
2022-12-29T10:14:55.533Z,73.23
2022-12-29T10:17:31.248Z,73.10
2022-12-29T10:20:29.505Z,72.16
2022-12-29T10:23:01.806Z,71.86
2022-12-29T10:25:33.398Z,72.09
2022-12-29T10:28:05.073Z,71.52
2022-12-29T10:30:35.446Z,70.98
2022-12-29T10:33:12.999Z,71.33
2022-12-29T10:35:41.549Z,71.16
2022-12-29T10:38:25.982Z,70.63
2022-12-29T10:41:04.239Z,70.74
2022-12-29T10:43:37.051Z,70.10
2022-12-29T10:46:07.815Z,70.38
2022-12-29T10:48:36.011Z,69.96
2022-12-29T10:51:05.368Z,70.22
2022-12-29T10:53:40.628Z,69.03
2022-12-29T10:56:35.837Z,69.01
2022-12-29T10:59:13.744Z,67.92
2022-12-29T11:02:07.913Z,67.81
2022-12-29T11:05:05.207Z,67.39
2022-12-29T11:07:32.286Z,67.47
2022-12-29T11:10:37.108Z,67.51
2022-12-29T11:13:12.598Z,67.38
2022-12-29T11:15:44.187Z,67.27
2022-12-29T11:18:33.770Z,66.62
2022-12-29T11:21:03.719Z,66.21
2022-12-29T11:23:41.903Z,66.31
2022-12-29T11:26:27.663Z,65.85
2022-12-29T11:29:21.026Z,65.87
2022-12-29T11:31:59.880Z,65.53
2022-12-29T11:34:37.108Z,66.23
2022-12-29T11:37:07.402Z,65.76
2022-12-29T11:39:40.307Z,65.81
2022-12-29T11:42:13.321Z,64.96
2022-12-29T11:44:45.225Z,65.46
2022-12-29T11:47:24.305Z,65.44
2022-12-29T11:49:56.540Z,64.82
2022-12-29T11:52:26.350Z,65.17
2022-12-29T11:54:55.977Z,65.24
2022-12-29T11:57:23.951Z,65.62
2022-12-29T11:59:51.508Z,65.84
2022-12-29T12:02:42.787Z,65.85
2022-12-29T12:05:15.869Z,66.16
2022-12-29T12:07:46.720Z,66.30
2022-12-29T12:10:24.939Z,67.25
2022-12-29T12:12:59.500Z,66.89
2022-12-29T12:15:32.673Z,67.27
2022-12-29T12:18:35.388Z,67.16
2022-12-29T12:21:11.629Z,67.68
2022-12-29T12:23:45.355Z,68.05
2022-12-29T12:26:17.027Z,68.02
2022-12-29T12:28:52.251Z,68.23
2022-12-29T12:31:28.877Z,68.42
2022-12-29T12:34:01.386Z,69.28
2022-12-29T12:37:00.265Z,69.09
2022-12-29T12:39:28.127Z,69.34
2022-12-29T12:42:23.497Z,69.57
2022-12-29T12:45:23.978Z,70.13
2022-12-29T12:48:04.596Z,70.34
2022-12-29T12:50:50.048Z,69.99
2022-12-29T12:53:37.471Z,70.13
2022-12-29T12:56:25.491Z,69.83
2022-12-29T12:59:10.053Z,69.24
2022-12-29T13:01:58.396Z,69.27
2022-12-29T13:04:53.449Z,69.73
2022-12-29T13:08:03.886Z,69.21
2022-12-29T13:10:41.820Z,69.46
2022-12-29T13:13:40.279Z,69.27
2022-12-29T13:16:20.259Z,69.41
2022-12-29T13:18:46.740Z,69.27
2022-12-29T13:21:39.022Z,70.35
2022-12-29T13:24:24.659Z,71.36
2022-12-29T13:26:58.863Z,73.28
2022-12-29T13:29:41.472Z,75.59
2022-12-29T13:32:23.997Z,77.13
2022-12-29T13:35:08.539Z,78.01
2022-12-29T13:37:41.178Z,78.63
2022-12-29T13:40:22.261Z,80.01
2022-12-29T13:42:49.719Z,80.27
2022-12-29T13:45:20.124Z,81.42
2022-12-29T13:48:05.199Z,82.45
2022-12-29T13:50:36.277Z,83.03
2022-12-29T13:53:12.132Z,83.67
2022-12-29T13:55:53.175Z,83.63
2022-12-29T13:58:26.163Z,80.39
2022-12-29T14:01:05.620Z,80.47
2022-12-29T14:03:48.989Z,80.20
2022-12-29T14:06:26.387Z,79.81
2022-12-29T14:09:05.597Z,80.45
2022-12-29T14:11:42.052Z,81.93
2022-12-29T14:14:20.581Z,83.39
2022-12-29T14:16:47.188Z,83.68
2022-12-29T14:19:22.040Z,85.01
2022-12-29T14:21:54.866Z,86.30
2022-12-29T14:24:37.931Z,87.69
2022-12-29T14:27:10.493Z,88.49
2022-12-29T14:29:39.555Z,88.58
2022-12-29T14:32:30.078Z,89.25
2022-12-29T14:34:58.740Z,89.16
2022-12-29T14:37:30.570Z,89.59
2022-12-29T14:40:15.565Z,90.40
2022-12-29T14:42:43.242Z,90.10
2022-12-29T14:45:30.197Z,90.07
2022-12-29T14:47:57.657Z,89.79
2022-12-29T14:50:25.404Z,89.82
2022-12-29T14:53:02.899Z,89.62
2022-12-29T14:55:39.566Z,89.83
2022-12-29T14:58:33.367Z,89.67
2022-12-29T15:01:01.354Z,89.76
2022-12-29T15:04:05.205Z,90.27
2022-12-29T15:06:36.834Z,89.97
2022-12-29T15:09:26.663Z,91.12
2022-12-29T15:11:57.524Z,90.97
2022-12-29T15:14:36.961Z,91.50
2022-12-29T15:17:12.478Z,91.79
2022-12-29T15:19:39.524Z,91.83
2022-12-29T15:22:06.935Z,92.27
2022-12-29T15:24:39.366Z,92.25
2022-12-29T15:27:15.373Z,92.92
2022-12-29T15:29:44.736Z,92.90
2022-12-29T15:32:17.654Z,92.79
2022-12-29T15:34:45.552Z,92.44
2022-12-29T15:37:32.952Z,92.46
2022-12-29T15:39:59.778Z,91.54
2022-12-29T15:43:02.415Z,91.98
2022-12-29T15:45:34.925Z,91.41
2022-12-29T15:48:01.746Z,90.80
2022-12-29T15:50:31.649Z,91.11
2022-12-29T15:52:59.082Z,90.64
2022-12-29T15:55:38.251Z,91.02
2022-12-29T15:58:07.065Z,89.75
2022-12-29T16:00:37.374Z,89.39
2022-12-29T16:03:05.116Z,89.33
2022-12-29T16:05:39.689Z,88.73
2022-12-29T16:08:41.086Z,89.33
2022-12-29T16:11:32.949Z,89.56
2022-12-29T16:14:00.425Z,88.99
2022-12-29T16:16:31.303Z,89.13
2022-12-29T16:18:58.695Z,88.96
2022-12-29T16:21:35.572Z,89.33
2022-12-29T16:24:08.049Z,89.68
2022-12-29T16:26:34.573Z,89.57
2022-12-29T16:29:06.075Z,89.79
2022-12-29T16:31:50.107Z,89.58
2022-12-29T16:34:30.983Z,89.69
2022-12-29T16:37:05.628Z,89.65
2022-12-29T16:39:40.496Z,90.11
2022-12-29T16:42:49.051Z,90.62
2022-12-29T16:45:47.171Z,90.96
2022-12-29T16:48:22.965Z,90.66
2022-12-29T16:50:50.132Z,90.37
2022-12-29T16:53:22.781Z,90.52
2022-12-29T16:55:51.030Z,90.35
2022-12-29T16:58:21.485Z,90.33
2022-12-29T17:00:48.341Z,90.18
2022-12-29T17:03:16.117Z,90.83
2022-12-29T17:05:42.633Z,90.48
2022-12-29T17:08:23.839Z,90.60
2022-12-29T17:11:14.834Z,90.22
2022-12-29T17:13:41.454Z,90.13
2022-12-29T17:16:10.770Z,89.89
2022-12-29T17:18:37.554Z,89.27
2022-12-29T17:21:04.128Z,89.26
2022-12-29T17:23:33.476Z,89.30
2022-12-29T17:26:00.167Z,89.05
2022-12-29T17:28:32.496Z,89.67
2022-12-29T17:31:03.795Z,89.52
2022-12-29T17:33:36.254Z,89.21
2022-12-29T17:36:02.770Z,89.31
2022-12-29T17:38:31.745Z,88.94
2022-12-29T17:40:58.791Z,88.67
2022-12-29T17:43:25.355Z,88.33
2022-12-29T17:45:57.621Z,88.26
2022-12-29T17:48:25.003Z,87.46
2022-12-29T17:50:53.767Z,87.49
2022-12-29T17:53:26.788Z,86.95
2022-12-29T17:55:53.480Z,86.73
2022-12-29T17:58:25.330Z,86.98
2022-12-29T18:00:54.578Z,86.29
2022-12-29T18:03:26.858Z,86.27
2022-12-29T18:05:53.728Z,85.61
2022-12-29T18:08:20.171Z,85.65
2022-12-29T18:10:47.426Z,85.32
2022-12-29T18:13:24.255Z,85.38
2022-12-29T18:15:51.477Z,84.76
2022-12-29T18:18:37.208Z,84.44
2022-12-29T18:21:03.634Z,83.70
2022-12-29T18:23:32.676Z,83.61
2022-12-29T18:26:02.024Z,83.22
2022-12-29T18:28:28.590Z,83.27
2022-12-29T18:30:57.996Z,83.09
2022-12-29T18:33:26.777Z,83.26
2022-12-29T18:36:04.128Z,83.14
2022-12-29T18:38:31.406Z,82.99
2022-12-29T18:40:58.991Z,82.90
2022-12-29T18:43:25.624Z,82.71
2022-12-29T18:45:52.351Z,82.61
2022-12-29T18:48:20.739Z,82.75
2022-12-29T18:50:52.153Z,82.78
2022-12-29T18:53:23.748Z,83.07
2022-12-29T18:55:51.282Z,82.64
2022-12-29T18:58:17.977Z,83.02
2022-12-29T19:00:44.634Z,83.10
2022-12-29T19:03:14.507Z,83.14
2022-12-29T19:05:43.382Z,82.92
2022-12-29T19:08:10.558Z,83.63
2022-12-29T19:10:37.835Z,84.01
2022-12-29T19:13:05.044Z,83.82
2022-12-29T19:15:34.022Z,84.15
2022-12-29T19:18:41.774Z,84.25
2022-12-29T19:20:51.193Z,84.05
2022-12-29T19:23:20.961Z,84.60
2022-12-29T19:25:48.447Z,84.96
2022-12-29T19:28:23.587Z,85.56
2022-12-29T19:30:52.776Z,85.09
2022-12-29T19:33:21.623Z,85.54
2022-12-29T19:35:48.679Z,85.62
2022-12-29T19:38:15.411Z,85.84
2022-12-29T19:40:44.294Z,85.92
2022-12-29T19:43:12.267Z,86.31
2022-12-29T19:45:40.491Z,86.70
2022-12-29T19:48:07.860Z,86.73
2022-12-29T19:50:35.067Z,87.89
2022-12-29T19:53:05.351Z,87.77
2022-12-29T19:55:32.792Z,88.19
2022-12-29T19:57:59.285Z,88.81
2022-12-29T20:00:25.754Z,89.44
2022-12-29T20:02:52.515Z,88.91
2022-12-29T20:05:19.614Z,89.15
2022-12-29T20:07:46.289Z,88.91
2022-12-29T20:10:12.769Z,87.86
2022-12-29T20:12:39.221Z,87.97
2022-12-29T20:15:09.748Z,87.98
2022-12-29T20:18:11.696Z,86.89
2022-12-29T20:20:23.289Z,87.02
2022-12-29T20:22:49.776Z,86.39
2022-12-29T20:25:44.265Z,85.83
2022-12-29T20:28:03.371Z,85.25
2022-12-29T20:30:29.795Z,85.29
2022-12-29T20:32:56.356Z,85.18
2022-12-29T20:35:22.920Z,85.39
2022-12-29T20:37:49.711Z,84.85
2022-12-29T20:40:16.331Z,85.33
2022-12-29T20:42:42.761Z,85.29
2022-12-29T20:45:09.721Z,85.76
2022-12-29T20:47:36.364Z,85.84
2022-12-29T20:50:02.920Z,86.28
2022-12-29T20:52:29.357Z,86.39
2022-12-29T20:54:55.749Z,86.75
2022-12-29T20:57:22.421Z,87.05
2022-12-29T20:59:48.887Z,87.45
2022-12-29T21:02:22.584Z,88.06
2022-12-29T21:07:35.717Z,87.97
2022-12-29T21:10:02.363Z,88.30
2022-12-29T21:12:28.749Z,88.79
2022-12-29T21:14:55.224Z,88.99
2022-12-29T21:17:21.713Z,88.97
2022-12-29T21:19:48.670Z,88.58
2022-12-29T21:22:15.147Z,88.65
2022-12-29T21:24:41.566Z,87.83
2022-12-29T21:27:08.179Z,87.20
2022-12-29T21:29:34.622Z,86.48
2022-12-29T21:32:06.301Z,85.76
2022-12-29T21:34:34.599Z,85.38
2022-12-29T21:37:01.175Z,84.83
2022-12-29T21:39:27.750Z,83.87
2022-12-29T21:42:00.004Z,83.60
2022-12-29T21:44:45.827Z,83.71
2022-12-29T21:47:12.286Z,83.46
2022-12-29T21:49:38.755Z,83.71
2022-12-29T21:52:05.365Z,84.21
2022-12-29T21:54:50.146Z,84.33
2022-12-29T21:57:36.382Z,84.64
2022-12-29T22:00:23.838Z,84.60
2022-12-29T22:03:11.367Z,85.36
2022-12-29T22:06:02.445Z,85.75
2022-12-29T22:08:47.137Z,86.50
2022-12-29T22:11:32.203Z,86.74
2022-12-29T22:14:00.269Z,87.01
2022-12-29T22:16:27.168Z,87.47
2022-12-29T22:18:53.693Z,87.13
2022-12-29T22:21:20.169Z,87.38
2022-12-29T22:23:46.624Z,87.26
2022-12-29T22:26:14.603Z,87.38
2022-12-29T22:28:43.855Z,87.26
2022-12-29T22:31:29.047Z,87.32
2022-12-29T22:34:01.277Z,86.94
2022-12-29T22:36:29.095Z,86.36
2022-12-29T22:38:55.663Z,86.61
2022-12-29T22:41:22.656Z,86.62
2022-12-29T22:43:49.091Z,86.47
2022-12-29T22:46:15.651Z,86.50
2022-12-29T22:48:42.109Z,86.09
2022-12-29T22:51:08.648Z,85.69
2022-12-29T22:53:35.208Z,85.65
2022-12-29T22:56:09.443Z,85.88
2022-12-29T22:58:40.137Z,86.06
2022-12-29T23:01:06.741Z,85.83
2022-12-29T23:03:33.320Z,85.79
2022-12-29T23:06:01.596Z,85.75
2022-12-29T23:08:31.486Z,85.98
2022-12-29T23:10:58.111Z,85.86
2022-12-29T23:13:25.673Z,85.55
2022-12-29T23:15:52.379Z,85.32
2022-12-29T23:18:18.810Z,85.10
2022-12-29T23:20:45.396Z,84.84
2022-12-29T23:23:11.873Z,84.13
2022-12-29T23:25:39.193Z,84.11
2022-12-29T23:28:08.158Z,83.89
2022-12-29T23:30:35.195Z,84.03
2022-12-29T23:33:01.753Z,83.80
2022-12-29T23:35:28.237Z,84.21
2022-12-29T23:37:54.623Z,84.30
2022-12-29T23:40:21.061Z,84.74
2022-12-29T23:42:47.556Z,84.65
2022-12-29T23:45:14.057Z,84.63
2022-12-29T23:47:40.495Z,84.45
2022-12-29T23:50:08.640Z,84.20
2022-12-29T23:52:35.186Z,84.31
2022-12-29T23:55:01.627Z,83.87
2022-12-29T23:57:28.057Z,83.59
2022-12-29T23:59:54.470Z,83.55
